Time;durP1;ratioP1;P1;durP2;ratioP2;P2;SDS_P1;SDS_P2;PMS_P1;PMS_P2;Temp;Humidity;BMP_temperature;BMP_pressure;BME280_temperature;BME280_humidity;BME280_pressure;Samples;Min_cycle;Max_cycle;Signal;HPM_P1;HPM_P2
2022/09/25 00:00:19;;;;;;;8.93;8.02;;;;;;;;;;5048297;28;20216;-79
2022/09/25 00:02:55;;;;;;;8.38;7.55;;;;;;;;;;5053352;28;20217;-79
2022/09/25 00:05:23;;;;;;;7.55;6.80;;;;;;;;;;5053759;28;20649;-82
2022/09/25 00:07:52;;;;;;;9.02;7.35;;;;;;;;;;5053837;28;20636;-82
2022/09/25 00:10:20;;;;;;;9.23;7.97;;;;;;;;;;5053907;28;20198;-81
2022/09/25 00:12:48;;;;;;;9.18;8.27;;;;;;;;;;5053454;28;20588;-81
2022/09/25 00:15:15;;;;;;;10.63;8.77;;;;;;;;;;5053734;28;20194;-81
2022/09/25 00:17:43;;;;;;;9.02;8.13;;;;;;;;;;5053547;28;20214;-82
2022/09/25 00:20:10;;;;;;;10.10;9.02;;;;;;;;;;5053203;28;20247;-81
2022/09/25 00:22:37;;;;;;;8.73;7.90;;;;;;;;;;5053404;28;20236;-83
2022/09/25 00:25:07;;;;;;;7.72;6.93;;;;;;;;;;5053646;28;20731;-81
2022/09/25 00:27:35;;;;;;;10.15;8.65;;;;;;;;;;5053109;28;20255;-81
2022/09/25 00:30:03;;;;;;;10.00;8.27;;;;;;;;;;5053714;28;20205;-81
2022/09/25 00:32:31;;;;;;;8.82;7.90;;;;;;;;;;5053123;28;20309;-80
2022/09/25 00:34:59;;;;;;;10.43;8.85;;;;;;;;;;5053523;28;20209;-82
2022/09/25 00:37:27;;;;;;;9.90;8.85;;;;;;;;;;5053113;28;20292;-80
2022/09/25 00:39:55;;;;;;;9.52;8.63;;;;;;;;;;5052769;28;20669;-81
2022/09/25 00:42:24;;;;;;;9.57;8.57;;;;;;;;;;5052774;28;20197;-81
2022/09/25 00:44:59;;;;;;;10.98;9.88;;;;;;;;;;5053125;28;20284;-81
2022/09/25 00:47:53;;;;;;;10.32;9.23;;;;;;;;;;5032838;28;20217;-81
2022/09/25 00:50:34;;;;;;;10.02;9.02;;;;;;;;;;5043576;28;20216;-81
2022/09/25 00:53:08;;;;;;;9.25;8.32;;;;;;;;;;5052960;28;20213;-81
2022/09/25 00:55:39;;;;;;;10.75;9.65;;;;;;;;;;5052602;28;20267;-81
2022/09/25 00:58:08;;;;;;;11.27;10.02;;;;;;;;;;5052476;28;20650;-81
2022/09/25 01:00:36;;;;;;;10.82;9.65;;;;;;;;;;5052536;28;20241;-81
2022/09/25 01:03:03;;;;;;;11.23;10.00;;;;;;;;;;5052517;28;20309;-81
2022/09/25 01:05:35;;;;;;;11.80;10.55;;;;;;;;;;5052555;28;20252;-81
2022/09/25 01:08:05;;;;;;;12.68;11.38;;;;;;;;;;5051640;28;20212;-82
2022/09/25 01:10:33;;;;;;;11.90;10.70;;;;;;;;;;5052360;28;20265;-81
2022/09/25 01:13:02;;;;;;;12.88;10.98;;;;;;;;;;5052897;28;20263;-81
2022/09/25 01:15:37;;;;;;;13.48;11.40;;;;;;;;;;5052957;28;20277;-81
2022/09/25 01:18:18;;;;;;;12.13;10.80;;;;;;;;;;5052744;28;20669;-82
2022/09/25 01:21:06;;;;;;;12.43;10.82;;;;;;;;;;5052697;28;20221;-82
2022/09/25 01:23:56;;;;;;;13.07;10.43;;;;;;;;;;5052433;28;20300;-82
2022/09/25 01:26:44;;;;;;;12.18;10.52;;;;;;;;;;5052590;28;20297;-81
2022/09/25 01:29:14;;;;;;;14.05;11.55;;;;;;;;;;5052301;28;20225;-81
2022/09/25 01:31:47;;;;;;;12.23;10.85;;;;;;;;;;5052453;28;20226;-81
2022/09/25 01:34:18;;;;;;;11.13;10.00;;;;;;;;;;5047019;28;20219;-81
2022/09/25 01:36:51;;;;;;;12.20;10.93;;;;;;;;;;5050698;28;20225;-81
2022/09/25 01:39:22;;;;;;;11.85;10.27;;;;;;;;;;5052362;28;20197;-81
2022/09/25 01:41:55;;;;;;;12.48;11.18;;;;;;;;;;5056711;28;20213;-82
2022/09/25 01:44:28;;;;;;;11.65;10.43;;;;;;;;;;5056366;28;20595;-81
2022/09/25 01:47:03;;;;;;;13.02;10.40;;;;;;;;;;5056222;28;20301;-80
2022/09/25 01:49:36;;;;;;;11.40;10.20;;;;;;;;;;5056670;28;20576;-82
2022/09/25 01:52:10;;;;;;;12.52;8.80;;;;;;;;;;5056590;28;20186;-83
2022/09/25 01:54:40;;;;;;;11.25;10.10;;;;;;;;;;5056600;28;20224;-81
2022/09/25 01:57:12;;;;;;;10.23;9.23;;;;;;;;;;5056093;28;20259;-81
2022/09/25 01:59:45;;;;;;;11.68;9.98;;;;;;;;;;5056242;28;20185;-82
2022/09/25 02:02:18;;;;;;;10.80;9.68;;;;;;;;;;5037584;28;20639;-82
2022/09/25 02:04:52;;;;;;;9.82;8.45;;;;;;;;;;5056522;28;20190;-81
2022/09/25 02:07:23;;;;;;;11.25;10.07;;;;;;;;;;5052987;28;20283;-81
2022/09/25 02:09:53;;;;;;;11.85;9.60;;;;;;;;;;5055741;28;20268;-82
2022/09/25 02:12:25;;;;;;;10.48;9.38;;;;;;;;;;5055412;28;20193;-81
2022/09/25 02:14:57;;;;;;;15.52;10.43;;;;;;;;;;5056255;28;20217;-81
2022/09/25 02:20:35;;;;;;;11.75;10.40;;;;;;;;;;5055670;28;20259;-81
2022/09/25 02:23:10;;;;;;;10.48;9.50;;;;;;;;;;5055964;28;20233;-82
2022/09/25 02:25:59;;;;;;;11.38;10.27;;;;;;;;;;5056027;28;20201;-81
2022/09/25 02:28:26;;;;;;;11.10;9.95;;;;;;;;;;5055189;28;20225;-81
2022/09/25 02:30:57;;;;;;;11.90;10.57;;;;;;;;;;5055928;28;20240;-81
2022/09/25 02:33:26;;;;;;;11.50;10.30;;;;;;;;;;5056539;28;20236;-81
2022/09/25 02:35:54;;;;;;;13.60;10.07;;;;;;;;;;5056357;28;20209;-82
2022/09/25 02:38:22;;;;;;;11.82;10.63;;;;;;;;;;5055858;28;20200;-81
2022/09/25 02:40:53;;;;;;;11.13;9.98;;;;;;;;;;5055625;28;20193;-81
2022/09/25 02:43:33;;;;;;;9.75;8.75;;;;;;;;;;5056192;28;20226;-82
2022/09/25 02:46:09;;;;;;;10.93;9.35;;;;;;;;;;5056091;28;20204;-81
2022/09/25 02:48:46;;;;;;;11.30;10.05;;;;;;;;;;5040290;28;20292;-81
2022/09/25 02:51:21;;;;;;;11.52;10.32;;;;;;;;;;5055180;28;20667;-81
2022/09/25 02:53:55;;;;;;;10.73;9.63;;;;;;;;;;5055657;28;20308;-81
2022/09/25 02:56:29;;;;;;;11.30;9.95;;;;;;;;;;5055389;28;20194;-81
2022/09/25 02:58:59;;;;;;;12.88;11.50;;;;;;;;;;5055094;28;20273;-81
2022/09/25 03:01:30;;;;;;;13.02;10.27;;;;;;;;;;5055619;28;20271;-81
2022/09/25 03:04:00;;;;;;;10.35;9.35;;;;;;;;;;5055917;28;20232;-81
2022/09/25 03:06:27;;;;;;;13.10;11.07;;;;;;;;;;5055335;28;20190;-81
2022/09/25 03:08:57;;;;;;;11.77;10.05;;;;;;;;;;5055135;28;20221;-81
2022/09/25 03:11:26;;;;;;;10.98;9.88;;;;;;;;;;5055411;28;20189;-81
2022/09/25 03:13:58;;;;;;;11.65;10.48;;;;;;;;;;5055183;28;20229;-81
2022/09/25 03:16:34;;;;;;;13.13;9.88;;;;;;;;;;5055655;28;20643;-82
2022/09/25 03:19:02;;;;;;;15.30;13.77;;;;;;;;;;5055151;28;20189;-81
2022/09/25 03:21:30;;;;;;;12.60;11.40;;;;;;;;;;5055016;28;20292;-82
2022/09/25 03:23:58;;;;;;;13.60;12.20;;;;;;;;;;5055525;28;20635;-81
2022/09/25 03:26:27;;;;;;;11.60;10.48;;;;;;;;;;5055616;28;20285;-82
2022/09/25 03:28:54;;;;;;;12.43;11.05;;;;;;;;;;5055133;28;20213;-83
2022/09/25 03:31:22;;;;;;;16.23;10.93;;;;;;;;;;5049706;28;20734;-83
2022/09/25 03:33:59;;;;;;;12.27;10.98;;;;;;;;;;5055160;28;20718;-81
2022/09/25 03:36:29;;;;;;;13.43;12.02;;;;;;;;;;5054721;28;20284;-81
2022/09/25 03:38:58;;;;;;;11.18;9.30;;;;;;;;;;5055052;28;20201;-82
2022/09/25 03:41:28;;;;;;;11.23;10.05;;;;;;;;;;5054895;28;20668;-81
2022/09/25 03:43:56;;;;;;;11.95;10.40;;;;;;;;;;5055017;28;20590;-81
2022/09/25 03:46:26;;;;;;;11.88;10.68;;;;;;;;;;5055175;28;20241;-81
2022/09/25 03:48:54;;;;;;;12.02;10.80;;;;;;;;;;5055004;28;20222;-82
2022/09/25 03:51:24;;;;;;;11.20;10.10;;;;;;;;;;5055185;28;20288;-82
2022/09/25 03:53:52;;;;;;;14.65;10.70;;;;;;;;;;5055309;28;20304;-82
2022/09/25 03:56:23;;;;;;;12.85;10.05;;;;;;;;;;5055106;28;20205;-81
2022/09/25 03:58:53;;;;;;;11.73;10.15;;;;;;;;;;5055325;28;20201;-81
2022/09/25 04:01:20;;;;;;;12.20;10.45;;;;;;;;;;5054830;28;20198;-81
2022/09/25 04:03:49;;;;;;;11.73;10.52;;;;;;;;;;5048328;28;20221;-81
2022/09/25 04:06:21;;;;;;;12.82;11.50;;;;;;;;;;5054736;28;20202;-81
2022/09/25 04:08:50;;;;;;;13.68;11.70;;;;;;;;;;5054148;28;20205;-81
2022/09/25 04:11:19;;;;;;;11.48;10.20;;;;;;;;;;5054209;28;20202;-81
2022/09/25 04:13:47;;;;;;;10.05;8.63;;;;;;;;;;5054486;28;20686;-80
2022/09/25 04:16:16;;;;;;;12.18;10.40;;;;;;;;;;5054466;28;20197;-81
2022/09/25 04:18:44;;;;;;;10.88;9.77;;;;;;;;;;5053812;28;20189;-81
2022/09/25 04:21:13;;;;;;;10.68;9.23;;;;;;;;;;5054575;28;20670;-80
2022/09/25 04:23:41;;;;;;;10.40;9.27;;;;;;;;;;5054349;28;20307;-81
2022/09/25 04:26:10;;;;;;;10.23;8.93;;;;;;;;;;5054269;28;20293;-80
2022/09/25 04:28:38;;;;;;;10.98;9.57;;;;;;;;;;5054622;28;20321;-82
2022/09/25 04:31:06;;;;;;;10.82;8.77;;;;;;;;;;5053926;28;20706;-82
2022/09/25 04:33:47;;;;;;;9.68;8.68;;;;;;;;;;5053962;28;20230;-81
2022/09/25 04:36:15;;;;;;;11.10;9.88;;;;;;;;;;5053947;28;20190;-81
2022/09/25 04:38:42;;;;;;;10.20;9.23;;;;;;;;;;5053374;28;20289;-84
2022/09/25 04:41:11;;;;;;;10.93;9.90;;;;;;;;;;5054443;28;20206;-82
2022/09/25 04:43:40;;;;;;;11.38;9.85;;;;;;;;;;5054407;28;20313;-81
2022/09/25 04:46:09;;;;;;;14.20;10.20;;;;;;;;;;5053788;28;20284;-81
2022/09/25 04:48:37;;;;;;;9.75;8.88;;;;;;;;;;5054542;28;20214;-81
2022/09/25 04:51:06;;;;;;;10.30;9.30;;;;;;;;;;5054614;28;20251;-81
2022/09/25 04:53:34;;;;;;;11.30;10.00;;;;;;;;;;5055020;28;20308;-81
2022/09/25 04:56:04;;;;;;;12.23;9.60;;;;;;;;;;5052912;28;20204;-82
2022/09/25 04:58:33;;;;;;;10.77;9.68;;;;;;;;;;5054322;28;20198;-81
2022/09/25 05:01:03;;;;;;;11.43;9.95;;;;;;;;;;5053812;28;20208;-84
2022/09/25 05:03:31;;;;;;;9.13;8.23;;;;;;;;;;5054557;28;20221;-82
2022/09/25 05:05:58;;;;;;;10.48;9.50;;;;;;;;;;5053742;28;20201;-81
2022/09/25 05:08:27;;;;;;;11.35;10.25;;;;;;;;;;5054128;28;20264;-82
2022/09/25 05:10:54;;;;;;;12.32;11.00;;;;;;;;;;5053435;28;20568;-81
2022/09/25 05:13:22;;;;;;;11.93;10.70;;;;;;;;;;5053343;28;20252;-81
2022/09/25 05:15:51;;;;;;;12.50;10.52;;;;;;;;;;5053399;28;20244;-81
2022/09/25 05:18:21;;;;;;;10.98;9.80;;;;;;;;;;5053774;28;20284;-80
2022/09/25 05:20:49;;;;;;;12.60;11.30;;;;;;;;;;5054511;28;20617;-81
2022/09/25 05:23:17;;;;;;;12.25;11.00;;;;;;;;;;5053341;28;20239;-82
2022/09/25 05:25:44;;;;;;;12.32;10.27;;;;;;;;;;5054154;28;20208;-82
2022/09/25 05:28:12;;;;;;;11.75;10.40;;;;;;;;;;5052703;28;20296;-82
2022/09/25 05:30:39;;;;;;;11.32;10.23;;;;;;;;;;5052583;28;20232;-82
2022/09/25 05:33:09;;;;;;;9.45;8.52;;;;;;;;;;5053931;28;20316;-81
2022/09/25 05:35:36;;;;;;;9.65;8.73;;;;;;;;;;5053519;28;20698;-82
2022/09/25 05:38:05;;;;;;;11.65;10.55;;;;;;;;;;5053207;28;20288;-83
2022/09/25 05:40:33;;;;;;;13.55;10.95;;;;;;;;;;5053286;28;20190;-81
2022/09/25 05:43:01;;;;;;;13.10;10.45;;;;;;;;;;5053657;28;20217;-83
2022/09/25 05:45:29;;;;;;;9.70;8.55;;;;;;;;;;5054808;28;20198;-82
2022/09/25 05:48:04;;;;;;;9.13;8.32;;;;;;;;;;5054316;28;20240;-81
2022/09/25 05:50:33;;;;;;;8.68;7.78;;;;;;;;;;5054436;28;20231;-82
2022/09/25 05:53:03;;;;;;;11.18;8.05;;;;;;;;;;5053909;28;20780;-81
2022/09/25 05:55:33;;;;;;;10.45;8.95;;;;;;;;;;5053172;28;20232;-81
2022/09/25 05:58:01;;;;;;;11.07;7.72;;;;;;;;;;5053655;28;20284;-84
2022/09/25 06:00:31;;;;;;;10.95;8.05;;;;;;;;;;5053975;28;20579;-81
2022/09/25 06:02:59;;;;;;;9.00;8.07;;;;;;;;;;5053872;28;20232;-81
2022/09/25 06:05:26;;;;;;;9.13;8.18;;;;;;;;;;5053913;28;20676;-81
2022/09/25 06:07:56;;;;;;;9.70;8.75;;;;;;;;;;5053538;28;20229;-81
2022/09/25 06:10:25;;;;;;;9.82;7.78;;;;;;;;;;5053530;28;20257;-82
2022/09/25 06:12:57;;;;;;;10.82;8.07;;;;;;;;;;5052965;28;20225;-81
2022/09/25 06:15:26;;;;;;;9.38;7.18;;;;;;;;;;5053436;28;20587;-81
2022/09/25 06:17:59;;;;;;;7.18;6.47;;;;;;;;;;5053258;28;20651;-80
2022/09/25 06:20:27;;;;;;;8.35;7.20;;;;;;;;;;5052665;28;20225;-81
2022/09/25 06:22:57;;;;;;;8.85;7.30;;;;;;;;;;5052973;28;20268;-81
2022/09/25 06:25:26;;;;;;;7.40;6.63;;;;;;;;;;5053105;28;20208;-81
2022/09/25 06:27:54;;;;;;;6.70;5.88;;;;;;;;;;5056258;28;20197;-81
2022/09/25 06:30:22;;;;;;;7.97;5.85;;;;;;;;;;5057615;28;20225;-81
2022/09/25 06:32:50;;;;;;;7.35;6.30;;;;;;;;;;5056914;28;20214;-81
2022/09/25 06:35:18;;;;;;;6.95;6.07;;;;;;;;;;5057403;28;20193;-82
2022/09/25 06:37:45;;;;;;;7.35;5.50;;;;;;;;;;5056986;28;20198;-81
2022/09/25 06:40:14;;;;;;;6.85;5.63;;;;;;;;;;5056404;28;20286;-81
2022/09/25 06:42:44;;;;;;;6.80;5.55;;;;;;;;;;5056698;28;20312;-83
2022/09/25 06:45:12;;;;;;;5.60;4.60;;;;;;;;;;5057263;28;20194;-81
2022/09/25 06:47:40;;;;;;;6.00;5.20;;;;;;;;;;5057095;28;20240;-82
2022/09/25 06:50:10;;;;;;;6.35;5.35;;;;;;;;;;5056654;28;20300;-81
2022/09/25 06:52:43;;;;;;;6.65;4.57;;;;;;;;;;5057962;28;20214;-82
2022/09/25 06:55:13;;;;;;;6.20;4.78;;;;;;;;;;5046560;28;20280;-81
2022/09/25 06:57:41;;;;;;;6.10;4.90;;;;;;;;;;5057414;28;20216;-81
2022/09/25 07:00:10;;;;;;;8.73;5.80;;;;;;;;;;5058379;28;20222;-81
2022/09/25 07:05:23;;;;;;;6.13;5.20;;;;;;;;;;5059109;28;20271;-81
2022/09/25 07:07:51;;;;;;;7.60;6.00;;;;;;;;;;5058879;28;20228;-81
2022/09/25 07:10:20;;;;;;;5.25;4.80;;;;;;;;;;5057927;28;20245;-80
2022/09/25 07:12:47;;;;;;;6.30;4.30;;;;;;;;;;5057026;28;20656;-82
2022/09/25 07:15:16;;;;;;;4.88;4.38;;;;;;;;;;5058494;28;20205;-82
2022/09/25 07:17:43;;;;;;;5.18;4.60;;;;;;;;;;5058654;28;20201;-83
2022/09/25 07:20:14;;;;;;;6.70;4.97;;;;;;;;;;5057583;28;20232;-83
2022/09/25 07:22:42;;;;;;;5.13;4.57;;;;;;;;;;5057747;28;20235;-81
2022/09/25 07:25:13;;;;;;;5.78;4.72;;;;;;;;;;5058175;28;20229;-82
2022/09/25 07:27:41;;;;;;;6.72;5.43;;;;;;;;;;5057588;28;20569;-81
2022/09/25 07:30:11;;;;;;;4.85;4.38;;;;;;;;;;5058351;28;20249;-81
2022/09/25 07:32:38;;;;;;;5.60;4.20;;;;;;;;;;5057713;28;20313;-82
2022/09/25 07:35:07;;;;;;;5.55;4.43;;;;;;;;;;5057870;28;20646;-80
2022/09/25 07:37:34;;;;;;;6.28;4.18;;;;;;;;;;5057126;28;20570;-81
2022/09/25 07:40:02;;;;;;;6.10;4.05;;;;;;;;;;5058736;28;20201;-81
2022/09/25 07:42:31;;;;;;;6.25;4.72;;;;;;;;;;5058000;28;20646;-80
2022/09/25 07:45:00;;;;;;;6.60;5.10;;;;;;;;;;5059528;28;20205;-82
2022/09/25 07:47:29;;;;;;;4.13;3.72;;;;;;;;;;5055743;28;20285;-82
2022/09/25 07:49:57;;;;;;;4.72;3.83;;;;;;;;;;5057409;28;20198;-83
2022/09/25 07:52:25;;;;;;;4.53;3.75;;;;;;;;;;5058667;28;20205;-83
2022/09/25 07:54:52;;;;;;;6.75;4.22;;;;;;;;;;5058745;28;20241;-84
2022/09/25 07:57:20;;;;;;;4.63;3.80;;;;;;;;;;5058498;28;20236;-83
2022/09/25 07:59:47;;;;;;;4.22;3.78;;;;;;;;;;5050384;28;20228;-82
2022/09/25 08:02:16;;;;;;;5.28;4.07;;;;;;;;;;5057827;28;20568;-85
2022/09/25 08:04:46;;;;;;;8.23;4.03;;;;;;;;;;5057730;28;20198;-83
2022/09/25 08:07:13;;;;;;;5.43;3.70;;;;;;;;;;5057134;28;20716;-84
2022/09/25 08:09:41;;;;;;;5.38;4.75;;;;;;;;;;5056872;28;20208;-85
2022/09/25 08:12:12;;;;;;;7.47;4.15;;;;;;;;;;5055694;28;20232;-82
2022/09/25 08:14:40;;;;;;;9.05;5.45;;;;;;;;;;5058127;28;20190;-82
2022/09/25 08:17:08;;;;;;;4.93;3.83;;;;;;;;;;5058042;28;20662;-82
2022/09/25 08:19:37;;;;;;;5.63;3.33;;;;;;;;;;5057908;28;20209;-82
2022/09/25 08:22:05;;;;;;;5.63;3.90;;;;;;;;;;5057755;28;20201;-82
2022/09/25 08:24:33;;;;;;;8.02;3.80;;;;;;;;;;5056816;28;20189;-81
2022/09/25 08:27:07;;;;;;;4.47;3.78;;;;;;;;;;5055976;28;20620;-81
2022/09/25 08:29:35;;;;;;;5.05;3.33;;;;;;;;;;5058239;28;20189;-81
2022/09/25 08:32:03;;;;;;;6.47;4.50;;;;;;;;;;5056901;28;20252;-81
2022/09/25 08:34:30;;;;;;;5.07;3.88;;;;;;;;;;5058108;28;20221;-82
2022/09/25 08:37:00;;;;;;;5.32;3.78;;;;;;;;;;5057310;28;20202;-82
2022/09/25 08:39:27;;;;;;;3.67;2.90;;;;;;;;;;5057174;28;20224;-83
2022/09/25 08:41:56;;;;;;;5.60;3.40;;;;;;;;;;5056848;28;20256;-82
2022/09/25 08:44:28;;;;;;;6.20;3.53;;;;;;;;;;5057404;28;20588;-83
2022/09/25 08:49:51;;;;;;;5.07;3.38;;;;;;;;;;5056995;28;20653;-84
2022/09/25 08:52:21;;;;;;;3.90;3.38;;;;;;;;;;5057329;28;20214;-81
2022/09/25 08:54:53;;;;;;;8.27;2.92;;;;;;;;;;5056734;28;20194;-83
2022/09/25 08:57:36;;;;;;;4.03;3.15;;;;;;;;;;5056250;28;20289;-83
2022/09/25 09:00:20;;;;;;;3.70;3.40;;;;;;;;;;5045625;28;20197;-83
2022/09/25 09:02:54;;;;;;;5.30;2.88;;;;;;;;;;5057672;28;20222;-82
2022/09/25 09:05:26;;;;;;;4.50;2.53;;;;;;;;;;5058749;28;20214;-82
2022/09/25 09:08:00;;;;;;;4.82;3.25;;;;;;;;;;5057137;28;20253;-83
2022/09/25 09:10:33;;;;;;;4.18;3.38;;;;;;;;;;5057945;28;20808;-85
2022/09/25 09:13:05;;;;;;;2.97;2.75;;;;;;;;;;5057350;28;20260;-84
2022/09/25 09:15:37;;;;;;;6.05;4.38;;;;;;;;;;5057085;28;20249;-83
2022/09/25 09:18:18;;;;;;;3.92;2.50;;;;;;;;;;5057314;28;20186;-85
2022/09/25 09:20:52;;;;;;;4.32;3.30;;;;;;;;;;5037669;28;20615;-82
2022/09/25 09:23:23;;;;;;;7.53;3.45;;;;;;;;;;5037294;28;20249;-83
2022/09/25 09:26:02;;;;;;;4.07;2.75;;;;;;;;;;5036391;28;20221;-82
2022/09/25 09:28:57;;;;;;;5.00;2.78;;;;;;;;;;5057081;28;20243;-83
2022/09/25 09:31:32;;;;;;;2.42;2.22;;;;;;;;;;5057590;28;20225;-81
2022/09/25 09:34:27;;;;;;;3.30;2.78;;;;;;;;;;5056815;28;20256;-82
2022/09/25 09:37:00;;;;;;;3.17;2.80;;;;;;;;;;5056973;28;20205;-82
2022/09/25 09:39:34;;;;;;;6.47;3.13;;;;;;;;;;5057312;28;20190;-82
2022/09/25 09:42:10;;;;;;;4.15;2.90;;;;;;;;;;5057316;28;20228;-82
2022/09/25 09:44:56;;;;;;;4.80;3.00;;;;;;;;;;5057181;28;20615;-83
2022/09/25 09:47:38;;;;;;;4.93;2.63;;;;;;;;;;5057057;28;20198;-82
2022/09/25 09:50:23;;;;;;;3.45;2.30;;;;;;;;;;5056381;28;20263;-84
2022/09/25 09:52:56;;;;;;;8.27;6.15;;;;;;;;;;5056261;28;20229;-83
2022/09/25 09:55:37;;;;;;;5.35;4.43;;;;;;;;;;5056676;28;20186;-83
2022/09/25 09:58:13;;;;;;;4.72;4.18;;;;;;;;;;5055919;28;20218;-81
2022/09/25 10:00:40;;;;;;;6.68;4.10;;;;;;;;;;5055565;28;20284;-83
2022/09/25 10:03:24;;;;;;;5.15;3.08;;;;;;;;;;5059331;28;20261;-83
2022/09/25 10:05:56;;;;;;;3.72;2.80;;;;;;;;;;5060375;28;20220;-83
2022/09/25 10:08:29;;;;;;;4.53;2.83;;;;;;;;;;5045585;28;20224;-84
2022/09/25 10:10:59;;;;;;;5.00;2.75;;;;;;;;;;5059010;28;20214;-81
2022/09/25 10:13:32;;;;;;;4.15;3.50;;;;;;;;;;5059455;28;20257;-84
2022/09/25 10:16:04;;;;;;;4.63;2.80;;;;;;;;;;5077828;22;20224;-83
2022/09/25 10:18:39;;;;;;;4.40;3.85;;;;;;;;;;5066598;28;20193;-83
2022/09/25 10:21:13;;;;;;;3.15;2.00;;;;;;;;;;5065363;28;20579;-82
2022/09/25 10:23:47;;;;;;;7.10;4.53;;;;;;;;;;5069395;28;20198;-83
2022/09/25 10:26:28;;;;;;;4.38;3.60;;;;;;;;;;5045386;28;21002;-82
2022/09/25 10:28:58;;;;;;;2.95;2.38;;;;;;;;;;5043490;28;20208;-84
2022/09/25 10:31:28;;;;;;;4.55;3.17;;;;;;;;;;5050731;28;20206;-81
2022/09/25 10:34:05;;;;;;;3.08;2.78;;;;;;;;;;5046799;28;20572;-82
2022/09/25 10:36:38;;;;;;;4.78;2.75;;;;;;;;;;5038585;28;20194;-82
2022/09/25 10:39:28;;;;;;;5.57;3.38;;;;;;;;;;5046475;28;20604;-81
2022/09/25 10:41:58;;;;;;;3.97;3.30;;;;;;;;;;5041353;28;20568;-82
2022/09/25 10:44:33;;;;;;;4.35;3.03;;;;;;;;;;5048431;28;20750;-82
2022/09/25 10:50:20;;;;;;;5.28;3.40;;;;;;;;;;5048495;28;20216;-82
2022/09/25 10:52:51;;;;;;;5.38;2.33;;;;;;;;;;5047038;28;20217;-83
2022/09/25 10:55:27;;;;;;;4.57;2.67;;;;;;;;;;5046422;28;20221;-83
2022/09/25 10:58:04;;;;;;;4.97;3.13;;;;;;;;;;5040722;28;20199;-82
2022/09/25 11:00:35;;;;;;;4.07;2.72;;;;;;;;;;5035149;28;20268;-82
2022/09/25 11:03:04;;;;;;;3.15;2.85;;;;;;;;;;5051528;28;20209;-83
2022/09/25 11:05:34;;;;;;;3.83;3.08;;;;;;;;;;5049880;28;20592;-82
2022/09/25 11:08:05;;;;;;;5.57;3.33;;;;;;;;;;5046319;28;20197;-82
2022/09/25 11:10:37;;;;;;;5.03;2.60;;;;;;;;;;5049598;28;20233;-83
2022/09/25 11:13:10;;;;;;;3.70;2.63;;;;;;;;;;5046247;28;20248;-83
2022/09/25 11:15:38;;;;;;;5.13;2.90;;;;;;;;;;5046708;28;20245;-82
2022/09/25 11:18:06;;;;;;;4.00;2.25;;;;;;;;;;5052691;28;20205;-82
2022/09/25 11:20:34;;;;;;;4.43;2.80;;;;;;;;;;5047574;28;20310;-82
2022/09/25 11:23:26;;;;;;;4.32;2.55;;;;;;;;;;5050170;28;20206;-83
2022/09/25 11:25:59;;;;;;;3.13;2.33;;;;;;;;;;5051818;28;20293;-83
2022/09/25 11:28:35;;;;;;;4.20;2.58;;;;;;;;;;5043447;28;20245;-83
2022/09/25 11:31:11;;;;;;;3.45;2.05;;;;;;;;;;5050908;28;20288;-83
2022/09/25 11:33:45;;;;;;;2.67;2.33;;;;;;;;;;5053631;28;20578;-83
2022/09/25 11:36:17;;;;;;;2.05;1.83;;;;;;;;;;5041759;28;20198;-82
2022/09/25 11:41:40;;;;;;;3.55;2.35;;;;;;;;;;5046560;28;20209;-83
2022/09/25 11:44:21;;;;;;;4.07;2.70;;;;;;;;;;5039933;28;20229;-83
2022/09/25 11:47:00;;;;;;;4.00;2.00;;;;;;;;;;5046091;28;20201;-83
2022/09/25 11:49:33;;;;;;;4.57;2.20;;;;;;;;;;5055084;28;20689;-81
2022/09/25 11:52:39;;;;;;;2.78;1.90;;;;;;;;;;5047629;28;20292;-81
2022/09/25 11:55:38;;;;;;;3.15;2.13;;;;;;;;;;5044770;28;20226;-83
2022/09/25 11:58:25;;;;;;;3.63;2.00;;;;;;;;;;5022461;28;20193;-83
2022/09/25 12:01:02;;;;;;;3.00;2.17;;;;;;;;;;5045155;28;20736;-82
2022/09/25 12:03:43;;;;;;;3.45;2.22;;;;;;;;;;5043823;28;20209;-82
2022/09/25 12:06:27;;;;;;;3.78;2.33;;;;;;;;;;5043397;28;20198;-82
2022/09/25 12:09:11;;;;;;;5.68;1.98;;;;;;;;;;5046849;28;20197;-81
2022/09/25 12:11:49;;;;;;;4.82;2.30;;;;;;;;;;5038743;28;20197;-81
2022/09/25 12:14:34;;;;;;;4.78;2.85;;;;;;;;;;5054179;28;20217;-82
2022/09/25 12:17:09;;;;;;;4.95;2.95;;;;;;;;;;5050860;28;20288;-82
2022/09/25 12:19:44;;;;;;;3.20;2.78;;;;;;;;;;5054858;28;20622;-82
2022/09/25 12:22:20;;;;;;;7.05;4.38;;;;;;;;;;5048668;28;20206;-82
2022/09/25 12:25:04;;;;;;;7.97;6.25;;;;;;;;;;5046874;28;20227;-82
2022/09/25 12:27:43;;;;;;;4.05;2.65;;;;;;;;;;5041700;28;20252;-82
2022/09/25 12:30:18;;;;;;;7.88;2.70;;;;;;;;;;5043352;28;20202;-82
2022/09/25 12:33:16;;;;;;;3.78;2.97;;;;;;;;;;5043984;28;20221;-83
2022/09/25 12:35:50;;;;;;;3.58;2.80;;;;;;;;;;5043623;28;20583;-80
2022/09/25 12:38:29;;;;;;;3.60;2.65;;;;;;;;;;5045547;28;20201;-82
2022/09/25 12:41:07;;;;;;;4.95;3.67;;;;;;;;;;5045544;28;20201;-81
2022/09/25 12:43:41;;;;;;;4.97;2.97;;;;;;;;;;5046296;28;20242;-82
2022/09/25 12:46:13;;;;;;;7.43;4.63;;;;;;;;;;5034863;28;20735;-83
2022/09/25 12:48:48;;;;;;;5.03;3.60;;;;;;;;;;5049714;28;20320;-82
2022/09/25 12:51:20;;;;;;;3.55;3.13;;;;;;;;;;5049107;28;20201;-82
2022/09/25 12:53:53;;;;;;;4.22;3.00;;;;;;;;;;5046336;28;20267;-82
2022/09/25 12:56:31;;;;;;;4.35;3.70;;;;;;;;;;5036787;28;20202;-82
2022/09/25 12:59:13;;;;;;;4.95;4.28;;;;;;;;;;5042759;28;20197;-82
2022/09/25 13:01:46;;;;;;;2.92;2.20;;;;;;;;;;5048896;28;20202;-82
2022/09/25 13:04:42;;;;;;;2.92;2.15;;;;;;;;;;5045467;28;20220;-82
2022/09/25 13:07:17;;;;;;;2.40;2.15;;;;;;;;;;5053852;28;20809;-82
2022/09/25 13:09:46;;;;;;;2.60;1.70;;;;;;;;;;5046913;28;20585;-82
2022/09/25 13:12:27;;;;;;;4.88;1.83;;;;;;;;;;5042236;28;20199;-82
2022/09/25 13:14:58;;;;;;;2.78;1.80;;;;;;;;;;5035477;28;20226;-83
2022/09/25 13:17:26;;;;;;;2.20;2.00;;;;;;;;;;5036736;28;20198;-82
2022/09/25 13:19:55;;;;;;;1.73;1.52;;;;;;;;;;5039353;28;20244;-83
2022/09/25 13:22:24;;;;;;;2.85;2.55;;;;;;;;;;5053515;28;20198;-82
2022/09/25 13:24:56;;;;;;;3.22;2.60;;;;;;;;;;5045945;28;20209;-83
2022/09/25 13:27:25;;;;;;;3.92;1.80;;;;;;;;;;5046205;28;20601;-82
2022/09/25 13:29:57;;;;;;;1.10;1.10;;;;;;;;;;5036664;28;20222;-82
2022/09/25 13:32:27;;;;;;;8.18;2.45;;;;;;;;;;5048062;28;20211;-81
2022/09/25 13:35:03;;;;;;;1.92;1.50;;;;;;;;;;5043049;28;20717;-83
2022/09/25 13:37:34;;;;;;;9.27;6.38;;;;;;;;;;5045273;28;20418;-82
2022/09/25 13:42:53;;;;;;;5.82;3.28;;;;;;;;;;5044463;28;20251;-82
2022/09/25 13:45:32;;;;;;;3.60;2.88;;;;;;;;;;5047862;28;20663;-83
2022/09/25 13:48:33;;;;;;;1.65;1.55;;;;;;;;;;5041109;28;20208;-83
2022/09/25 13:51:34;;;;;;;4.35;3.03;;;;;;;;;;5055287;28;20574;-82
2022/09/25 13:54:07;;;;;;;2.63;1.55;;;;;;;;;;5054931;28;20240;-82
2022/09/25 13:56:53;;;;;;;1.65;1.55;;;;;;;;;;5051974;28;20198;-83
2022/09/25 13:59:42;;;;;;;1.92;1.63;;;;;;;;;;5051736;28;20691;-83
2022/09/25 14:02:45;;;;;;;1.90;1.27;;;;;;;;;;5043293;28;20281;-81
2022/09/25 14:05:17;;;;;;;1.73;1.25;;;;;;;;;;5043997;28;20217;-81
2022/09/25 14:07:47;;;;;;;1.40;1.30;;;;;;;;;;5044381;28;20404;-82
2022/09/25 14:10:14;;;;;;;1.58;1.30;;;;;;;;;;5048499;28;20225;-81
2022/09/25 14:12:45;;;;;;;1.45;1.23;;;;;;;;;;5049462;28;20284;-80
2022/09/25 14:15:25;;;;;;;5.28;1.85;;;;;;;;;;5047841;28;20611;-81
2022/09/25 14:17:55;;;;;;;1.33;1.23;;;;;;;;;;5047557;28;20295;-81
2022/09/25 14:20:39;;;;;;;1.60;1.30;;;;;;;;;;5057888;28;20217;-80
2022/09/25 14:23:14;;;;;;;1.40;1.30;;;;;;;;;;5054384;28;20208;-80
2022/09/25 14:25:45;;;;;;;1.00;1.00;;;;;;;;;;5050234;28;20350;-80
2022/09/25 14:28:22;;;;;;;2.70;1.63;;;;;;;;;;5057994;28;20197;-80
2022/09/25 14:31:20;;;;;;;2.20;1.30;;;;;;;;;;5048408;28;20265;-80
2022/09/25 14:34:28;;;;;;;1.58;1.45;;;;;;;;;;5045859;28;20205;-81
2022/09/25 14:37:08;;;;;;;1.60;1.50;;;;;;;;;;5026448;28;20260;-80
2022/09/25 14:39:47;;;;;;;3.75;1.48;;;;;;;;;;5043894;28;20199;-80
2022/09/25 14:42:52;;;;;;;1.50;1.40;;;;;;;;;;5040224;28;20194;-81
2022/09/25 14:45:55;;;;;;;1.48;1.38;;;;;;;;;;5054165;28;20217;-79
2022/09/25 14:48:27;;;;;;;1.88;1.33;;;;;;;;;;5056688;28;20288;-81
2022/09/25 14:50:58;;;;;;;3.75;2.22;;;;;;;;;;5047458;28;20224;-79
2022/09/25 14:53:30;;;;;;;8.55;5.88;;;;;;;;;;5049412;28;20201;-80
2022/09/25 14:56:01;;;;;;;4.55;3.50;;;;;;;;;;5041467;28;20218;-82
2022/09/25 14:58:31;;;;;;;3.13;2.58;;;;;;;;;;5055887;28;20251;-80
2022/09/25 15:01:13;;;;;;;5.00;3.08;;;;;;;;;;5052868;28;20206;-81
2022/09/25 15:03:47;;;;;;;1.40;1.30;;;;;;;;;;5049907;28;20202;-80
2022/09/25 15:06:26;;;;;;;1.73;1.40;;;;;;;;;;5038479;28;20198;-80
2022/09/25 15:08:53;;;;;;;1.83;1.30;;;;;;;;;;5052140;28;20201;-81
2022/09/25 15:11:25;;;;;;;1.20;1.10;;;;;;;;;;5048423;28;20209;-81
2022/09/25 15:13:53;;;;;;;1.33;1.23;;;;;;;;;;5046496;28;20720;-82
2022/09/25 15:19:16;;;;;;;1.60;1.50;;;;;;;;;;5045700;28;20753;-82
2022/09/25 15:21:44;;;;;;;2.05;1.60;;;;;;;;;;5046406;28;20212;-81
2022/09/25 15:24:17;;;;;;;2.03;1.50;;;;;;;;;;5051902;28;20253;-81
2022/09/25 15:26:50;;;;;;;1.70;1.30;;;;;;;;;;5044679;28;20203;-80
2022/09/25 15:29:21;;;;;;;1.40;1.30;;;;;;;;;;5049985;28;20209;-82